createdAt,value
2023-05-01T00:01:52.438Z,2.97
2023-05-01T00:04:26.813Z,2.25
2023-05-01T00:07:00.946Z,2.47
2023-05-01T00:09:33.825Z,1.27
2023-05-01T00:14:39.713Z,2.20
2023-05-01T00:17:12.927Z,2.17
2023-05-01T00:19:47.309Z,1.98
2023-05-01T00:22:20.045Z,2.25
2023-05-01T00:24:53.275Z,3.05
2023-05-01T00:27:26.277Z,3.00
2023-05-01T00:32:32.062Z,2.42
2023-05-01T00:37:39.860Z,2.30
2023-05-01T00:40:13.400Z,3.30
2023-05-01T00:42:46.290Z,4.07
2023-05-01T00:45:19.393Z,2.45
2023-05-01T00:47:57.920Z,2.80
2023-05-01T00:50:32.743Z,2.10
2023-05-01T00:53:11.889Z,2.58
2023-05-01T00:55:54.398Z,2.28
2023-05-01T00:58:38.162Z,3.25
2023-05-01T01:01:21.846Z,2.28
2023-05-01T01:03:55.725Z,3.15
2023-05-01T01:06:35.579Z,2.17
2023-05-01T01:09:20.871Z,4.57
2023-05-01T01:12:11.917Z,2.75
2023-05-01T01:14:54.520Z,3.50
2023-05-01T01:17:37.896Z,2.67
2023-05-01T01:20:25.093Z,2.45
2023-05-01T01:23:31.717Z,2.90
2023-05-01T01:26:14.197Z,2.53
2023-05-01T01:29:19.424Z,2.08
2023-05-01T01:32:05.782Z,1.88
2023-05-01T01:34:45.693Z,2.90
2023-05-01T01:37:23.676Z,1.80
2023-05-01T01:40:03.835Z,3.80
2023-05-01T01:42:41.960Z,2.42
2023-05-01T01:45:21.048Z,2.85
2023-05-01T01:47:55.805Z,1.75
2023-05-01T02:02:34.897Z,2.50
2023-05-01T02:07:59.291Z,3.65
2023-05-01T02:10:36.644Z,2.85
2023-05-01T02:13:11.777Z,2.13
2023-05-01T02:15:47.053Z,2.38
2023-05-01T02:18:22.998Z,3.22
2023-05-01T02:20:58.605Z,2.28
2023-05-01T02:23:33.725Z,3.05
2023-05-01T02:26:11.753Z,2.33
2023-05-01T02:28:45.415Z,2.63
2023-05-01T02:31:19.301Z,3.90
2023-05-01T02:33:54.382Z,4.13
2023-05-01T02:36:35.310Z,3.42
2023-05-01T02:39:08.785Z,2.08
2023-05-01T02:41:43.877Z,2.95
2023-05-01T02:44:21.273Z,2.30
2023-05-01T02:46:56.644Z,2.58
2023-05-01T02:49:35.054Z,3.10
2023-05-01T02:52:09.344Z,4.38
2023-05-01T02:54:45.540Z,4.20
2023-05-01T02:57:22.817Z,2.45
2023-05-01T03:00:04.646Z,3.25
2023-05-01T03:05:16.313Z,3.50
2023-05-01T03:07:51.300Z,2.67
2023-05-01T03:10:28.078Z,3.47
2023-05-01T03:13:02.253Z,4.47
2023-05-01T03:15:35.649Z,3.13
2023-05-01T03:18:09.560Z,2.38
2023-05-01T03:20:53.926Z,3.38
2023-05-01T03:23:28.012Z,3.78
2023-05-01T03:26:01.581Z,2.70
2023-05-01T03:28:34.647Z,1.95
2023-05-01T03:31:08.059Z,5.22
2023-05-01T03:36:16.532Z,4.15
2023-05-01T03:38:51.960Z,2.53
2023-05-01T03:41:43.237Z,3.25
2023-05-01T03:44:28.901Z,3.50
2023-05-01T03:47:02.554Z,2.88
2023-05-01T03:49:36.498Z,3.10
2023-05-01T03:54:44.688Z,1.98
2023-05-01T03:57:31.967Z,3.88
2023-05-01T04:00:07.246Z,3.60
2023-05-01T04:05:25.468Z,2.42
2023-05-01T04:08:06.072Z,2.95
2023-05-01T04:10:39.144Z,4.35
2023-05-01T04:15:48.722Z,5.20
2023-05-01T04:18:22.058Z,2.80
2023-05-01T04:20:55.307Z,3.88
2023-05-01T04:23:29.833Z,4.22
2023-05-01T04:26:07.650Z,3.63
2023-05-01T04:28:40.587Z,3.70
2023-05-01T04:31:15.995Z,3.22
2023-05-01T04:33:49.127Z,2.40
2023-05-01T04:38:56.919Z,2.00
2023-05-01T04:41:30.074Z,4.25
2023-05-01T04:44:05.399Z,4.53
2023-05-01T04:46:38.362Z,3.35
2023-05-01T04:49:12.019Z,2.65
2023-05-01T04:51:45.883Z,5.75
2023-05-01T04:54:45.137Z,2.70
2023-05-01T04:57:24.340Z,2.53
2023-05-01T04:59:58.864Z,2.70
2023-05-01T05:02:34.757Z,3.10
2023-05-01T05:05:08.541Z,2.42
2023-05-01T05:07:41.315Z,3.60
2023-05-01T05:10:41.862Z,2.42
2023-05-01T05:13:37.344Z,3.95
2023-05-01T05:16:17.647Z,2.97
2023-05-01T05:18:59.254Z,2.58
2023-05-01T05:21:34.248Z,3.08
2023-05-01T05:24:09.005Z,4.72
2023-05-01T05:26:43.605Z,3.13
2023-05-01T05:29:17.049Z,3.53
2023-05-01T05:31:57.479Z,3.30
2023-05-01T05:34:41.606Z,3.53
2023-05-01T05:37:46.258Z,3.10
2023-05-01T05:40:28.058Z,3.78
2023-05-01T05:43:05.154Z,3.58
2023-05-01T05:48:53.894Z,2.75
2023-05-01T05:51:34.796Z,3.90
2023-05-01T05:54:30.326Z,4.10
2023-05-01T05:57:10.732Z,4.05
2023-05-01T06:00:17.244Z,3.40
2023-05-01T06:07:19.018Z,3.85
2023-05-01T06:16:02.123Z,4.90
2023-05-01T06:18:35.637Z,3.53
2023-05-01T06:21:08.886Z,3.10
2023-05-01T06:23:49.108Z,3.28
2023-05-01T06:26:40.980Z,2.83
2023-05-01T06:29:14.292Z,3.70
2023-05-01T06:37:46.191Z,3.30
2023-05-01T07:33:34.384Z,3.65
2023-05-01T07:39:24.585Z,3.70
2023-05-01T08:00:54.568Z,5.45
2023-05-01T08:03:55.896Z,7.72
2023-05-01T08:16:50.017Z,4.00
2023-05-01T08:59:58.252Z,6.07
2023-05-01T09:02:33.237Z,7.60
2023-05-01T09:05:29.177Z,5.88
2023-05-01T09:08:26.765Z,7.45
2023-05-01T09:11:36.182Z,6.78
2023-05-01T09:14:11.445Z,8.32
2023-05-01T09:16:50.851Z,7.78
2023-05-01T09:19:53.059Z,5.87
2023-05-01T09:22:26.796Z,8.38
2023-05-01T09:25:10.957Z,6.82
2023-05-01T09:27:59.524Z,7.55
2023-05-01T09:30:36.879Z,5.43
2023-05-01T09:33:16.960Z,6.18
2023-05-01T09:36:18.925Z,5.95
2023-05-01T09:39:04.391Z,8.15
2023-05-01T09:42:02.910Z,7.78
2023-05-01T09:44:45.271Z,7.53
2023-05-01T09:47:23.347Z,7.80
2023-05-01T09:50:06.039Z,10.77
2023-05-01T09:52:39.400Z,7.90
2023-05-01T09:55:16.541Z,9.10
2023-05-01T09:57:49.592Z,5.35
2023-05-01T10:00:25.396Z,7.78
2023-05-01T10:02:58.756Z,8.43
2023-05-01T10:05:44.335Z,6.50
2023-05-01T10:08:17.327Z,7.38
2023-05-01T10:13:35.548Z,9.85
2023-05-01T10:16:30.443Z,8.63
2023-05-01T10:19:06.213Z,10.18
2023-05-01T10:21:42.767Z,11.02
2023-05-01T10:24:16.965Z,11.70
2023-05-01T10:26:56.281Z,11.02
2023-05-01T10:29:31.067Z,12.15
2023-05-01T10:32:05.851Z,9.82
2023-05-01T10:34:43.599Z,11.07
2023-05-01T10:37:33.424Z,9.88
2023-05-01T10:40:43.849Z,11.48
2023-05-01T10:43:26.195Z,10.77
2023-05-01T10:46:30.167Z,10.68
2023-05-01T10:49:06.207Z,9.32
2023-05-01T10:52:00.137Z,11.55
2023-05-01T10:54:36.807Z,13.10
2023-05-01T10:57:09.562Z,10.20
2023-05-01T11:00:13.986Z,9.45
2023-05-01T11:02:46.976Z,8.25
2023-05-01T11:08:33.159Z,8.23
2023-05-01T11:11:52.114Z,8.88
2023-05-01T11:14:25.179Z,9.82
2023-05-01T11:16:58.199Z,7.90
2023-05-01T11:19:50.760Z,10.68
2023-05-01T11:22:23.838Z,8.97
2023-05-01T11:24:57.276Z,8.80
2023-05-01T11:27:32.251Z,7.28
2023-05-01T11:30:05.659Z,7.57
2023-05-01T11:32:39.128Z,10.10
2023-05-01T11:35:19.046Z,8.82
2023-05-01T11:37:52.286Z,8.38
2023-05-01T11:40:26.626Z,6.45
2023-05-01T11:43:05.391Z,7.10
2023-05-01T11:45:38.647Z,7.90
2023-05-01T11:48:16.851Z,4.45
2023-05-01T11:50:50.064Z,6.13
2023-05-01T11:53:24.269Z,5.85
2023-05-01T11:55:59.604Z,7.28
2023-05-01T11:58:37.139Z,6.85
2023-05-01T12:01:14.307Z,6.38
2023-05-01T12:03:48.834Z,5.72
2023-05-01T12:06:25.987Z,6.07
2023-05-01T12:09:02.275Z,7.85
2023-05-01T12:11:45.146Z,6.32
2023-05-01T12:14:26.762Z,6.90
2023-05-01T12:17:03.287Z,4.85
2023-05-01T12:19:39.105Z,5.95
2023-05-01T12:22:12.531Z,7.70
2023-05-01T12:24:55.893Z,7.82
2023-05-01T12:27:29.311Z,7.07
2023-05-01T12:32:37.114Z,4.85
2023-05-01T12:35:16.384Z,6.78
2023-05-01T12:37:49.731Z,8.63
2023-05-01T12:40:24.844Z,4.50
2023-05-01T12:42:58.983Z,5.50
2023-05-01T12:45:40.471Z,6.18
2023-05-01T12:48:15.820Z,4.43
2023-05-01T12:50:54.322Z,6.32
2023-05-01T12:53:28.794Z,5.70
2023-05-01T12:56:03.350Z,8.18
2023-05-01T12:58:37.792Z,5.38
2023-05-01T13:01:12.739Z,6.78
2023-05-01T13:03:48.514Z,4.55
2023-05-01T13:06:21.678Z,4.93
2023-05-01T13:11:27.464Z,6.88
2023-05-01T13:14:08.676Z,6.50
2023-05-01T13:16:47.352Z,4.50
2023-05-01T13:19:29.514Z,6.88
2023-05-01T13:22:02.720Z,6.10
2023-05-01T13:24:40.469Z,6.63
2023-05-01T13:27:14.047Z,11.13
2023-05-01T13:29:54.565Z,9.20
2023-05-01T13:32:29.248Z,6.05
2023-05-01T13:35:03.148Z,7.03
2023-05-01T13:37:38.444Z,7.18
2023-05-01T13:40:12.912Z,4.80
2023-05-01T13:42:50.148Z,7.25
2023-05-01T13:45:32.075Z,6.80
2023-05-01T13:48:07.439Z,6.20
2023-05-01T13:50:42.623Z,6.25
2023-05-01T13:53:25.120Z,4.97
2023-05-01T13:55:58.536Z,9.23
2023-05-01T13:58:31.892Z,5.30
2023-05-01T14:01:07.845Z,6.75
2023-05-01T14:03:46.247Z,8.25
2023-05-01T14:06:21.918Z,6.15
2023-05-01T14:08:58.654Z,5.85
2023-05-01T14:11:34.376Z,7.50
2023-05-01T14:14:08.249Z,6.68
2023-05-01T14:16:47.919Z,9.60
2023-05-01T14:19:25.677Z,9.15
2023-05-01T14:21:58.820Z,8.00
2023-05-01T14:24:32.078Z,6.40
2023-05-01T14:27:10.576Z,8.32
2023-05-01T14:29:44.810Z,6.20
2023-05-01T14:32:17.806Z,4.93
2023-05-01T14:34:52.683Z,8.85
2023-05-01T14:37:26.204Z,7.80
2023-05-01T14:39:59.409Z,5.95
2023-05-01T14:42:33.935Z,11.75
2023-05-01T14:45:10.873Z,7.20
2023-05-01T14:47:48.782Z,8.88
2023-05-01T14:50:25.507Z,5.97
2023-05-01T14:53:01.301Z,6.57
2023-05-01T14:55:34.908Z,9.13
2023-05-01T14:58:08.018Z,8.68
2023-05-01T15:00:41.044Z,6.53
2023-05-01T15:03:14.187Z,6.25
2023-05-01T15:05:48.614Z,6.47
2023-05-01T15:08:21.420Z,8.27
2023-05-01T15:13:27.136Z,15.20
2023-05-01T15:16:00.578Z,10.10
2023-05-01T15:18:35.135Z,13.75
2023-05-01T15:21:09.386Z,8.15
2023-05-01T15:23:45.195Z,7.80
2023-05-01T15:26:18.566Z,8.10
2023-05-01T15:28:51.812Z,7.85
2023-05-01T15:31:24.833Z,7.07
2023-05-01T15:33:58.105Z,6.50
2023-05-01T15:36:32.822Z,6.95
2023-05-01T15:39:11.890Z,6.88
2023-05-01T15:41:44.812Z,7.00
2023-05-01T15:44:18.119Z,6.25
2023-05-01T15:46:51.278Z,7.72
2023-05-01T15:49:24.212Z,8.15
2023-05-01T15:54:31.067Z,7.70
2023-05-01T15:59:40.310Z,8.45
2023-05-01T16:02:13.320Z,8.93
2023-05-01T16:04:47.821Z,9.43
2023-05-01T16:07:24.664Z,7.85
2023-05-01T16:09:58.181Z,8.90
2023-05-01T16:12:31.563Z,8.18
2023-05-01T16:15:05.483Z,8.82
2023-05-01T16:17:44.427Z,11.30
2023-05-01T16:20:17.517Z,11.13
2023-05-01T16:25:33.696Z,12.13
2023-05-01T16:28:07.087Z,15.32
2023-05-01T16:30:42.491Z,12.95
2023-05-01T16:33:18.993Z,14.35
2023-05-01T16:35:52.470Z,13.93
2023-05-01T16:38:28.051Z,14.65
2023-05-01T16:41:01.285Z,16.95
2023-05-01T16:43:34.201Z,14.23
2023-05-01T16:46:07.093Z,14.13
2023-05-01T16:51:13.083Z,11.57
2023-05-01T16:56:20.426Z,11.52
2023-05-01T16:58:53.339Z,11.68
2023-05-01T17:04:00.352Z,12.07
2023-05-01T17:06:33.488Z,10.70
2023-05-01T17:09:07.875Z,11.80
2023-05-01T17:11:40.908Z,12.00
2023-05-01T17:14:13.791Z,12.48
2023-05-01T17:19:26.230Z,12.95
2023-05-01T17:21:58.986Z,16.27
2023-05-01T17:24:33.247Z,15.95
2023-05-01T17:27:06.135Z,14.82
2023-05-01T17:32:33.612Z,16.45
2023-05-01T17:35:10.513Z,18.30
2023-05-01T17:37:43.238Z,16.52
2023-05-01T17:40:17.428Z,19.95
2023-05-01T17:42:50.190Z,18.27
2023-05-01T17:45:22.984Z,16.00
2023-05-01T17:47:55.825Z,19.13
2023-05-01T17:50:28.841Z,18.60
2023-05-01T17:53:01.588Z,18.65
2023-05-01T17:55:37.053Z,16.42
2023-05-01T17:58:09.842Z,16.42
2023-05-01T18:00:42.620Z,20.95
2023-05-01T18:05:48.560Z,18.50
2023-05-01T18:10:55.941Z,19.10
2023-05-01T18:13:29.986Z,18.15
2023-05-01T18:16:03.240Z,18.45
2023-05-01T18:18:36.463Z,19.92
2023-05-01T18:21:09.412Z,19.40
2023-05-01T18:26:19.141Z,21.20
2023-05-01T18:28:56.951Z,18.50
2023-05-01T18:31:30.023Z,18.88
2023-05-01T18:34:05.086Z,20.38
2023-05-01T18:36:39.182Z,21.83
2023-05-01T18:39:12.527Z,21.52
2023-05-01T18:41:46.765Z,18.98
2023-05-01T18:44:19.652Z,20.75
2023-05-01T18:49:25.615Z,23.75
2023-05-01T18:51:58.620Z,19.17
2023-05-01T18:54:32.470Z,18.02
2023-05-01T18:57:07.465Z,20.65
2023-05-01T18:59:40.774Z,21.77
2023-05-01T19:02:14.164Z,23.30
2023-05-01T19:07:30.932Z,20.08
2023-05-01T19:10:04.110Z,23.30
2023-05-01T19:12:39.534Z,21.55
2023-05-01T19:15:12.736Z,23.35
2023-05-01T19:17:46.036Z,20.40
2023-05-01T19:20:19.008Z,24.33
2023-05-01T19:25:25.344Z,24.88
2023-05-01T19:28:02.315Z,23.75
2023-05-01T19:30:37.213Z,22.75
2023-05-01T19:33:10.343Z,26.50
2023-05-01T19:38:16.109Z,22.90
2023-05-01T19:40:49.178Z,21.73
2023-05-01T19:43:23.785Z,21.20
2023-05-01T19:45:57.233Z,23.38
2023-05-01T19:48:30.197Z,25.30
2023-05-01T19:53:36.297Z,25.10
2023-05-01T19:56:10.329Z,25.38
2023-05-01T19:58:44.820Z,23.58
2023-05-01T20:01:19.872Z,24.58
2023-05-01T20:03:55.889Z,26.27
2023-05-01T20:06:29.302Z,21.65
2023-05-01T20:09:02.528Z,22.98
2023-05-01T20:11:35.387Z,21.95
2023-05-01T20:16:46.248Z,22.92
2023-05-01T20:19:22.614Z,26.00
2023-05-01T20:21:57.630Z,21.45
2023-05-01T20:24:31.631Z,24.80
2023-05-01T20:27:12.592Z,21.15
2023-05-01T20:29:52.102Z,21.38
2023-05-01T20:32:26.400Z,21.60
2023-05-01T20:35:00.421Z,20.67
2023-05-01T20:37:33.729Z,18.38
2023-05-01T20:40:13.039Z,19.65
2023-05-01T20:42:48.795Z,20.88
2023-05-01T20:45:23.156Z,20.58
2023-05-01T20:47:56.237Z,18.33
2023-05-01T20:50:29.367Z,16.17
2023-05-01T20:53:02.450Z,16.02
2023-05-01T20:58:08.175Z,15.55
2023-05-01T21:00:44.970Z,15.10
2023-05-01T21:03:18.003Z,14.23
2023-05-01T21:05:51.040Z,14.32
2023-05-01T21:08:28.515Z,13.43
2023-05-01T21:11:04.175Z,15.32
2023-05-01T21:13:36.934Z,13.88
2023-05-01T21:16:15.796Z,12.77
2023-05-01T21:18:49.654Z,13.80
2023-05-01T21:21:22.746Z,12.75
2023-05-01T21:23:58.856Z,12.63
2023-05-01T21:26:31.938Z,11.50
2023-05-01T21:29:04.952Z,14.73
2023-05-01T21:34:20.388Z,12.27
2023-05-01T21:36:55.511Z,12.38
2023-05-01T21:42:02.658Z,11.27
2023-05-01T21:44:35.502Z,11.50
2023-05-01T21:47:10.704Z,10.20
2023-05-01T21:49:43.570Z,11.70
2023-05-01T21:52:18.573Z,11.07
2023-05-01T21:54:51.574Z,12.85
2023-05-01T21:57:24.611Z,11.55
2023-05-01T22:02:40.879Z,9.77
2023-05-01T22:05:16.520Z,9.90
2023-05-01T22:07:51.408Z,10.45
2023-05-01T22:10:24.430Z,15.70
2023-05-01T22:15:30.171Z,10.95
2023-05-01T22:20:37.523Z,12.38
2023-05-01T22:25:43.501Z,11.40
2023-05-01T22:30:51.326Z,13.88
2023-05-01T22:33:25.639Z,10.25
2023-05-01T22:35:58.609Z,12.55
2023-05-01T22:38:31.615Z,10.90
2023-05-01T22:43:38.775Z,11.25
2023-05-01T22:46:13.968Z,8.50
2023-05-01T22:48:48.200Z,11.10
2023-05-01T22:51:20.928Z,9.38
2023-05-01T22:53:53.725Z,8.88
2023-05-01T22:56:27.831Z,10.05
2023-05-01T22:59:01.068Z,10.32
2023-05-01T23:01:33.911Z,11.05
2023-05-01T23:06:41.345Z,9.77
2023-05-01T23:09:14.447Z,9.85
2023-05-01T23:11:51.091Z,9.25
2023-05-01T23:14:25.640Z,9.68
2023-05-01T23:16:59.035Z,8.35
2023-05-01T23:19:33.341Z,9.88
2023-05-01T23:22:13.298Z,9.38
2023-05-01T23:24:49.659Z,9.32
2023-05-01T23:27:22.860Z,9.55
2023-05-01T23:29:59.694Z,8.90
2023-05-01T23:32:32.732Z,8.10
2023-05-01T23:37:45.749Z,8.05
2023-05-01T23:42:55.317Z,8.52
2023-05-01T23:45:35.723Z,7.28
2023-05-01T23:48:08.916Z,8.45
2023-05-01T23:50:43.133Z,7.40
2023-05-01T23:53:15.905Z,6.80
2023-05-01T23:55:48.738Z,6.72
